Time;durP1;ratioP1;P1;durP2;ratioP2;P2;SDS_P1;SDS_P2;PMS_P1;PMS_P2;Temp;Humidity;BMP_temperature;BMP_pressure;BME280_temperature;BME280_humidity;BME280_pressure;Samples;Min_cycle;Max_cycle;Signal;HPM_P1;HPM_P2
2023/03/14 00:01:23;;;;;;;15.00;2.03;;;11.80;99.90;;;;;;4974093;28;20030;-82
2023/03/14 00:03:50;;;;;;;6.97;1.95;;;11.80;99.90;;;;;;4989422;28;20097;-83
2023/03/14 00:06:17;;;;;;;2.22;2.03;;;11.80;99.90;;;;;;4971812;28;20064;-82
2023/03/14 00:08:44;;;;;;;9.48;2.38;;;11.30;99.90;;;;;;4957958;28;20042;-82
2023/03/14 00:11:13;;;;;;;2.67;1.42;;;11.70;99.90;;;;;;5001954;28;20034;-82
2023/03/14 00:13:39;;;;;;;4.03;1.35;;;11.70;99.90;;;;;;5008275;28;20046;-82
2023/03/14 00:16:07;;;;;;;2.83;1.70;;;11.70;99.90;;;;;;5006810;28;20032;-82
2023/03/14 00:18:34;;;;;;;3.03;1.30;;;11.70;99.90;;;;;;4990913;28;20468;-82
2023/03/14 00:21:01;;;;;;;2.47;1.50;;;11.60;99.90;;;;;;4989231;28;20441;-83
2023/03/14 00:23:29;;;;;;;5.38;1.77;;;11.60;99.90;;;;;;4992650;28;20030;-82
2023/03/14 00:26:03;;;;;;;5.90;1.23;;;11.60;99.90;;;;;;5009685;28;20377;-82
2023/03/14 00:28:29;;;;;;;2.85;1.60;;;11.50;99.90;;;;;;5007189;28;20076;-82
2023/03/14 00:30:56;;;;;;;2.05;1.13;;;11.50;99.90;;;;;;5007801;28;20056;-83
2023/03/14 00:33:22;;;;;;;2.83;2.10;;;11.50;99.90;;;;;;4993850;28;20042;-82
2023/03/14 00:35:56;;;;;;;2.05;0.80;;;11.50;99.90;;;;;;5009494;28;20256;-83
2023/03/14 00:38:22;;;;;;;1.80;0.90;;;11.40;99.90;;;;;;5008899;28;20077;-82
2023/03/14 00:40:48;;;;;;;1.17;0.77;;;11.40;99.90;;;;;;5006328;28;20434;-82
2023/03/14 00:43:16;;;;;;;3.50;0.98;;;11.30;99.90;;;;;;4977817;28;20136;-84
2023/03/14 00:45:42;;;;;;;7.00;1.92;;;11.40;99.90;;;;;;5011691;28;20065;-83
2023/03/14 00:48:07;;;;;;;4.72;1.08;;;11.30;99.90;;;;;;4994127;28;20081;-83
2023/03/14 00:50:33;;;;;;;3.85;1.40;;;11.30;99.90;;;;;;4972998;28;20029;-83
2023/03/14 00:52:59;;;;;;;5.05;2.22;;;11.30;99.90;;;;;;4990801;28;20046;-83
2023/03/14 00:55:25;;;;;;;5.28;3.03;;;11.40;99.90;;;;;;4960341;28;20388;-83
2023/03/14 00:57:51;;;;;;;0.65;0.65;;;11.40;99.90;;;;;;4991923;28;20114;-82
2023/03/14 01:00:17;;;;;;;2.33;0.93;;;11.40;99.90;;;;;;4991348;28;20045;-81
2023/03/14 01:02:43;;;;;;;9.52;2.22;;;11.40;99.90;;;;;;4991528;28;20033;-82
2023/03/14 01:05:10;;;;;;;3.45;2.17;;;11.40;99.90;;;;;;4990340;28;20037;-82
2023/03/14 01:07:36;;;;;;;6.25;1.55;;;11.40;99.90;;;;;;5006145;28;20034;-83
2023/03/14 01:10:06;;;;;;;7.80;2.42;;;11.40;99.90;;;;;;4990563;28;20029;-82
2023/03/14 01:12:32;;;;;;;1.80;0.75;;;11.40;99.90;;;;;;4985825;28;20462;-83
2023/03/14 01:14:58;;;;;;;2.88;0.95;;;11.40;99.90;;;;;;4977323;28;20040;-82
2023/03/14 01:17:24;;;;;;;3.42;0.80;;;11.40;99.90;;;;;;4993696;28;20046;-82
2023/03/14 01:19:50;;;;;;;1.65;1.50;;;11.30;99.90;;;;;;4979332;28;20040;-82
2023/03/14 01:22:16;;;;;;;7.55;1.63;;;11.30;99.90;;;;;;5013903;28;20058;-84
2023/03/14 01:24:42;;;;;;;3.40;1.75;;;11.20;99.90;;;;;;4995196;28;20500;-83
2023/03/14 01:27:07;;;;;;;7.85;1.63;;;11.10;99.90;;;;;;5013672;28;20113;-83
2023/03/14 01:29:33;;;;;;;4.10;3.67;;;11.10;99.90;;;;;;5011184;28;20042;-82
2023/03/14 01:31:59;;;;;;;4.65;1.17;;;11.00;99.90;;;;;;4997741;28;20460;-82
2023/03/14 01:34:25;;;;;;;5.82;1.50;;;10.90;99.90;;;;;;5012555;28;20085;-82
2023/03/14 01:36:51;;;;;;;2.60;1.55;;;10.80;99.90;;;;;;5012388;28;20408;-82
2023/03/14 01:39:17;;;;;;;4.30;1.58;;;10.70;99.90;;;;;;4997549;28;20431;-83
2023/03/14 01:41:44;;;;;;;3.60;1.35;;;10.60;99.90;;;;;;4977164;28;20030;-82
2023/03/14 01:44:13;;;;;;;5.97;1.77;;;10.60;99.90;;;;;;4996417;28;20030;-82
2023/03/14 01:46:41;;;;;;;8.23;1.10;;;10.50;99.90;;;;;;5013531;28;20018;-82
2023/03/14 01:49:12;;;;;;;4.40;1.63;;;10.40;99.90;;;;;;4998524;28;20070;-82
2023/03/14 01:52:01;;;;;;;2.90;1.67;;;10.30;99.90;;;;;;4993165;28;20022;-82
2023/03/14 01:54:43;;;;;;;2.63;1.20;;;10.20;99.90;;;;;;4996701;28;20076;-82
2023/03/14 01:57:28;;;;;;;;;;;10.10;99.90;;;;;;5014155;28;20030;-82
2023/03/14 02:00:05;;;;;;;1.65;1.55;;;10.10;99.90;;;;;;5009239;28;19988;-82
2023/03/14 02:02:45;;;;;;;1.85;1.02;;;10.10;99.90;;;;;;4993662;28;20034;-82
2023/03/14 02:05:21;;;;;;;2.17;1.40;;;10.10;99.90;;;;;;4977187;28;20030;-83
2023/03/14 02:07:57;;;;;;;6.05;1.45;;;9.90;99.90;;;;;;4993559;28;20035;-82
2023/03/14 02:10:31;;;;;;;3.50;1.77;;;9.90;99.90;;;;;;4983462;28;20029;-82
2023/03/14 02:13:03;;;;;;;4.60;1.50;;;10.00;99.90;;;;;;4996333;28;20117;-82
2023/03/14 02:15:50;;;;;;;16.75;2.20;;;10.10;99.90;;;;;;5006077;28;20026;-82
2023/03/14 02:18:40;;;;;;;;;;;10.20;99.90;;;;;;5007849;28;20045;-82
2023/03/14 02:21:59;;;;;;;2.40;1.20;;;10.20;99.90;;;;;;5012598;28;19983;-82
2023/03/14 02:24:44;;;;;;;5.07;1.85;;;10.30;99.90;;;;;;4997053;28;20037;-82
2023/03/14 02:27:18;;;;;;;5.68;1.95;;;10.30;99.90;;;;;;4996496;28;20034;-81
2023/03/14 02:29:52;;;;;;;3.60;2.20;;;10.40;99.90;;;;;;4994869;28;23136;-82
2023/03/14 02:32:20;;;;;;;5.50;2.38;;;10.40;99.90;;;;;;4996424;28;20029;-82
2023/03/14 02:34:50;;;;;;;5.28;3.30;;;10.40;99.90;;;;;;4996298;28;20034;-82
2023/03/14 02:37:18;;;;;;;8.02;2.97;;;10.40;99.90;;;;;;4996315;28;20025;-82
2023/03/14 02:39:45;;;;;;;3.53;2.20;;;10.60;99.90;;;;;;4993954;28;20026;-82
2023/03/14 02:42:13;;;;;;;3.17;1.65;;;10.60;99.90;;;;;;4979874;28;20045;-83
2023/03/14 02:44:53;;;;;;;1.77;1.67;;;10.60;99.90;;;;;;5006350;28;20022;-82
2023/03/14 02:47:26;;;;;;;5.38;2.60;;;10.60;99.90;;;;;;4992623;28;20038;-84
2023/03/14 02:49:57;;;;;;;5.78;2.90;;;10.60;99.90;;;;;;4995073;28;20022;-82
2023/03/14 02:52:25;;;;;;;10.05;2.60;;;10.60;99.90;;;;;;5012373;28;20034;-82
2023/03/14 02:54:51;;;;;;;5.30;3.20;;;10.50;99.90;;;;;;4992413;28;20026;-83
2023/03/14 02:57:17;;;;;;;10.68;1.95;;;10.50;99.90;;;;;;4991758;28;20473;-83
2023/03/14 02:59:43;;;;;;;6.85;2.15;;;10.50;99.90;;;;;;4961194;28;20129;-82
2023/03/14 03:02:14;;;;;;;3.88;2.05;;;10.50;99.90;;;;;;5012597;28;20022;-82
2023/03/14 03:04:40;;;;;;;5.60;1.20;;;10.50;99.90;;;;;;4995562;28;20517;-82
2023/03/14 03:07:06;;;;;;;6.22;1.77;;;10.40;99.90;;;;;;5011335;28;20117;-83
2023/03/14 03:09:32;;;;;;;7.35;3.30;;;10.40;99.90;;;;;;5009625;28;20056;-82
2023/03/14 03:11:58;;;;;;;7.78;2.55;;;10.20;99.90;;;;;;4995509;28;20473;-82
2023/03/14 03:14:26;;;;;;;11.57;3.80;;;10.40;99.90;;;;;;5010874;28;20080;-82
2023/03/14 03:16:55;;;;;;;4.35;1.60;;;10.30;99.90;;;;;;4994503;28;20033;-82
2023/03/14 03:19:21;;;;;;;9.77;2.65;;;10.30;99.90;;;;;;5011848;28;20695;-82
2023/03/14 03:21:48;;;;;;;5.55;1.38;;;10.30;99.90;;;;;;4976909;28;20030;-82
2023/03/14 03:24:14;;;;;;;2.97;1.25;;;10.30;99.90;;;;;;4979324;28;20034;-82
2023/03/14 03:26:40;;;;;;;2.40;1.20;;;10.30;99.90;;;;;;4994766;28;20105;-82
2023/03/14 03:29:08;;;;;;;4.63;1.60;;;10.30;99.90;;;;;;5009749;28;20444;-82
2023/03/14 03:31:37;;;;;;;0.90;0.90;;;10.30;99.90;;;;;;4994319;28;20060;-82
2023/03/14 03:34:03;;;;;;;4.35;0.90;;;10.30;99.90;;;;;;4993915;28;20456;-83
2023/03/14 03:36:29;;;;;;;1.83;1.40;;;10.20;99.90;;;;;;5011739;28;20160;-82
2023/03/14 03:38:57;;;;;;;4.38;1.08;;;10.20;99.90;;;;;;5010817;28;20024;-82
2023/03/14 03:41:24;;;;;;;0.63;0.55;;;10.10;99.90;;;;;;4990367;28;20027;-82
2023/03/14 03:43:50;;;;;;;2.83;0.57;;;10.00;99.90;;;;;;4994758;28;20022;-83
2023/03/14 03:46:17;;;;;;;3.13;1.17;;;9.90;99.90;;;;;;4994109;28;20022;-82
2023/03/14 03:48:43;;;;;;;6.38;1.08;;;9.90;99.90;;;;;;4995012;28;20079;-82
2023/03/14 03:51:15;;;;;;;2.95;0.80;;;9.70;99.90;;;;;;4990683;28;20034;-82
2023/03/14 03:53:42;;;;;;;2.35;1.17;;;9.60;99.90;;;;;;4994190;28;20492;-83
2023/03/14 03:56:10;;;;;;;0.40;0.40;;;9.50;99.90;;;;;;4994629;28;20026;-82
2023/03/14 03:58:38;;;;;;;1.52;0.68;;;9.40;99.90;;;;;;5011010;28;20034;-83
2023/03/14 04:01:09;;;;;;;5.15;3.05;;;9.30;99.90;;;;;;4993270;28;20042;-84
2023/03/14 04:03:35;;;;;;;5.88;0.60;;;9.00;99.90;;;;;;4995016;28;20034;-81
2023/03/14 04:06:07;;;;;;;2.85;1.63;;;8.80;99.90;;;;;;5011852;28;20026;-81
2023/03/14 04:08:35;;;;;;;2.90;1.10;;;9.00;99.90;;;;;;5010436;28;20049;-82
2023/03/14 04:11:01;;;;;;;0.68;0.68;;;9.00;99.90;;;;;;5008079;28;20476;-81
2023/03/14 04:14:06;;;;;;;2.22;0.90;;;9.00;99.90;;;;;;4977560;28;20444;-82
2023/03/14 04:16:32;;;;;;;4.03;1.30;;;8.90;99.90;;;;;;4956967;28;20580;-82
2023/03/14 04:19:08;;;;;;;1.02;0.57;;;8.90;99.90;;;;;;4986588;28;20042;-82
2023/03/14 04:21:44;;;;;;;1.17;1.05;;;8.90;99.90;;;;;;4988278;28;20030;-82
2023/03/14 04:24:11;;;;;;;1.10;0.80;;;8.70;99.90;;;;;;4973356;28;20037;-82
2023/03/14 04:26:38;;;;;;;3.78;1.10;;;8.90;99.90;;;;;;4991128;28;20037;-82
2023/03/14 04:29:04;;;;;;;2.10;1.73;;;8.80;99.90;;;;;;4992584;28;20060;-82
2023/03/14 04:31:30;;;;;;;0.65;0.65;;;8.80;99.90;;;;;;4992258;28;20034;-81
2023/03/14 04:33:56;;;;;;;6.32;1.83;;;8.90;99.90;;;;;;4974661;28;20038;-82
2023/03/14 04:36:34;;;;;;;4.88;1.95;;;9.00;99.90;;;;;;4975914;28;20104;-82
2023/03/14 04:39:04;;;;;;;3.63;2.47;;;9.00;99.90;;;;;;4990551;28;20065;-81
2023/03/14 04:41:31;;;;;;;5.18;1.52;;;9.10;99.90;;;;;;4992706;28;20096;-81
2023/03/14 04:43:57;;;;;;;3.38;1.98;;;9.10;99.90;;;;;;5009238;28;20460;-82
2023/03/14 04:46:23;;;;;;;1.27;1.27;;;9.10;99.90;;;;;;5012837;28;20026;-82
2023/03/14 04:48:49;;;;;;;2.65;1.55;;;9.10;99.90;;;;;;5014368;28;20505;-82
2023/03/14 04:51:17;;;;;;;4.18;1.70;;;9.30;99.90;;;;;;4997251;28;20037;-82
2023/03/14 04:53:43;;;;;;;2.33;2.05;;;9.20;99.90;;;;;;5009840;28;20489;-81
2023/03/14 04:56:12;;;;;;;4.43;1.85;;;9.30;99.90;;;;;;5014872;28;20030;-82
2023/03/14 04:58:39;;;;;;;7.05;2.13;;;9.30;99.90;;;;;;5030062;28;20034;-81
2023/03/14 05:01:07;;;;;;;4.82;2.70;;;9.30;99.90;;;;;;5008927;28;20057;-82
2023/03/14 05:04:02;;;;;;;3.00;2.45;;;9.30;99.90;;;;;;4945304;28;20036;-82
2023/03/14 05:06:48;;;;;;;2.75;2.15;;;9.40;99.90;;;;;;5013145;28;20081;-82
2023/03/14 05:09:35;;;;;;;5.13;3.60;;;9.40;99.90;;;;;;5012200;28;20025;-82
2023/03/14 05:12:16;;;;;;;2.08;1.55;;;9.40;99.90;;;;;;4998568;28;20069;-81
2023/03/14 05:14:53;;;;;;;4.35;2.20;;;9.40;99.90;;;;;;5003011;28;20436;-82
2023/03/14 05:17:38;;;;;;;6.00;2.38;;;9.50;99.90;;;;;;5012863;28;20048;-82
2023/03/14 05:20:24;;;;;;;12.48;2.92;;;9.50;99.90;;;;;;4995502;28;20045;-82
2023/03/14 05:23:10;;;;;;;2.35;1.88;;;9.50;99.90;;;;;;4951678;28;20042;-82
2023/03/14 05:25:48;;;;;;;2.85;2.63;;;9.50;99.90;;;;;;4994473;28;20169;-81
2023/03/14 05:28:31;;;;;;;1.98;1.85;;;9.60;99.90;;;;;;5000720;28;20546;-81
2023/03/14 05:31:29;;;;;;;4.00;3.70;;;9.60;99.90;;;;;;4980305;28;20035;-81
2023/03/14 05:34:13;;;;;;;9.05;1.80;;;9.60;99.90;;;;;;4993705;28;20142;-81
2023/03/14 05:36:49;;;;;;;5.60;2.50;;;9.60;99.90;;;;;;5004879;28;20037;-80
2023/03/14 05:39:37;;;;;;;5.18;2.17;;;9.60;99.90;;;;;;5006306;28;20218;-81
2023/03/14 05:42:16;;;;;;;9.30;2.70;;;9.70;99.90;;;;;;4975305;28;20042;-82
2023/03/14 05:45:05;;;;;;;6.82;2.17;;;9.50;99.90;;;;;;4999477;28;20477;-85
2023/03/14 05:48:00;;;;;;;2.50;2.13;;;9.70;99.90;;;;;;4965685;28;20027;-83
2023/03/14 05:50:35;;;;;;;5.65;2.35;;;9.70;99.90;;;;;;5011761;28;20045;-82
2023/03/14 05:53:15;;;;;;;3.95;2.78;;;9.70;99.90;;;;;;5010922;28;20053;-83
2023/03/14 05:55:53;;;;;;;4.95;2.80;;;9.60;99.90;;;;;;4993846;28;20033;-82
2023/03/14 05:58:31;;;;;;;4.57;2.10;;;9.60;99.90;;;;;;4982081;28;20096;-84
2023/03/14 06:01:13;;;;;;;3.90;2.35;;;9.70;99.90;;;;;;4996609;28;20034;-84
2023/03/14 06:04:08;;;;;;;5.57;2.03;;;9.70;99.90;;;;;;4984613;28;20147;-83
2023/03/14 06:06:34;;;;;;;2.10;1.90;;;9.60;99.90;;;;;;5011658;28;20057;-82
2023/03/14 06:09:01;;;;;;;2.15;2.03;;;9.40;99.90;;;;;;5013441;28;20354;-85
2023/03/14 06:11:28;;;;;;;3.00;1.77;;;9.60;99.90;;;;;;4964791;28;20026;-85
2023/03/14 06:13:55;;;;;;;3.25;2.58;;;9.60;99.90;;;;;;5013165;28;20392;-84
2023/03/14 06:16:21;;;;;;;3.50;1.70;;;9.70;99.90;;;;;;4995998;28;20026;-85
2023/03/14 06:18:48;;;;;;;2.47;1.98;;;9.60;99.90;;;;;;4978823;28;20052;-81
2023/03/14 06:21:17;;;;;;;3.75;2.78;;;9.60;99.90;;;;;;4991892;28;20042;-81
2023/03/14 06:23:43;;;;;;;2.90;1.88;;;9.60;99.90;;;;;;4992809;28;20400;-83
2023/03/14 06:26:11;;;;;;;2.15;1.55;;;9.70;99.90;;;;;;4995926;28;20034;-83
2023/03/14 06:28:38;;;;;;;2.30;1.88;;;9.70;99.90;;;;;;5010700;28;20113;-83
2023/03/14 06:31:05;;;;;;;5.18;1.75;;;9.90;99.90;;;;;;4976327;28;20072;-82
2023/03/14 06:33:37;;;;;;;2.65;1.55;;;9.80;99.90;;;;;;5011729;28;20551;-81
2023/03/14 06:36:05;;;;;;;4.97;1.38;;;9.90;99.90;;;;;;4973362;28;20133;-82
2023/03/14 06:38:32;;;;;;;6.35;3.55;;;9.80;99.90;;;;;;4957414;28;20600;-82
2023/03/14 06:41:07;;;;;;;3.08;2.10;;;9.90;99.90;;;;;;4975374;28;20522;-82
2023/03/14 06:43:43;;;;;;;3.75;2.28;;;9.90;99.90;;;;;;4971800;28;20081;-83
2023/03/14 06:46:10;;;;;;;5.50;1.85;;;9.90;99.90;;;;;;4958949;28;20133;-84
2023/03/14 06:48:38;;;;;;;3.05;2.00;;;10.00;99.90;;;;;;4942936;28;20137;-82
2023/03/14 06:51:06;;;;;;;2.38;2.17;;;10.20;99.90;;;;;;4973476;28;20125;-82
2023/03/14 06:53:33;;;;;;;5.90;1.60;;;10.30;99.90;;;;;;4955596;28;20071;-82
2023/03/14 06:56:00;;;;;;;3.08;2.05;;;10.40;99.90;;;;;;4970494;28;20418;-82
2023/03/14 06:58:28;;;;;;;5.10;1.98;;;10.40;99.90;;;;;;4958385;28;20125;-82
2023/03/14 07:00:56;;;;;;;2.08;1.65;;;10.40;99.90;;;;;;4973454;28;20034;-82
2023/03/14 07:03:26;;;;;;;2.35;1.77;;;10.40;99.90;;;;;;4974615;28;20030;-84
2023/03/14 07:05:54;;;;;;;2.30;2.10;;;10.50;99.90;;;;;;4933541;28;20141;-82
2023/03/14 07:08:20;;;;;;;7.38;2.22;;;10.60;99.90;;;;;;5008013;28;20030;-83
2023/03/14 07:10:49;;;;;;;2.15;1.88;;;10.40;99.90;;;;;;4990562;28;20036;-82
2023/03/14 07:13:17;;;;;;;3.72;3.42;;;10.60;99.90;;;;;;4994546;28;20074;-82
2023/03/14 07:15:50;;;;;;;4.13;3.72;;;10.50;99.90;;;;;;5007480;28;20468;-82
2023/03/14 07:18:17;;;;;;;10.20;9.27;;;10.60;99.90;;;;;;5009850;28;20104;-82
2023/03/14 07:20:45;;;;;;;3.15;2.95;;;10.70;99.90;;;;;;4992892;28;20033;-83
2023/03/14 07:23:12;;;;;;;1.77;1.67;;;10.70;99.90;;;;;;4972068;28;20502;-83
2023/03/14 07:25:51;;;;;;;1.48;1.00;;;10.70;99.90;;;;;;4971930;28;20520;-82
2023/03/14 07:28:19;;;;;;;0.70;0.70;;;10.70;99.90;;;;;;4972765;28;20065;-82
2023/03/14 07:30:47;;;;;;;1.60;1.50;;;10.70;99.90;;;;;;4967814;28;20109;-85
2023/03/14 07:33:21;;;;;;;1.38;1.27;;;10.60;99.90;;;;;;4958289;28;20062;-84
2023/03/14 07:35:48;;;;;;;1.50;1.40;;;10.60;99.90;;;;;;4970943;28;21090;-84
2023/03/14 07:38:15;;;;;;;4.50;1.77;;;10.50;99.90;;;;;;4972850;28;20041;-84
2023/03/14 07:41:05;;;;;;;2.72;2.53;;;10.50;99.90;;;;;;4968997;28;20042;-85
2023/03/14 07:43:34;;;;;;;10.45;8.18;;;10.50;99.90;;;;;;4944512;28;20397;-83
2023/03/14 07:46:01;;;;;;;2.00;1.90;;;10.50;99.90;;;;;;4965185;28;20074;-84
2023/03/14 07:48:27;;;;;;;3.00;2.17;;;10.40;99.90;;;;;;4990188;28;20092;-83
2023/03/14 07:50:54;;;;;;;1.10;1.10;;;10.40;99.90;;;;;;4949018;28;20030;-84
2023/03/14 07:53:21;;;;;;;1.10;1.00;;;10.30;99.90;;;;;;4977252;28;20048;-83
2023/03/14 07:55:47;;;;;;;1.77;1.67;;;10.10;99.90;;;;;;4994935;28;20079;-83
2023/03/14 07:58:14;;;;;;;1.48;1.40;;;10.00;99.90;;;;;;5010600;28;20123;-82
2023/03/14 08:00:40;;;;;;;2.83;1.30;;;9.90;99.90;;;;;;5005265;28;20022;-80
2023/03/14 08:03:06;;;;;;;1.58;1.48;;;9.40;99.90;;;;;;4963072;28;20037;-82
2023/03/14 08:05:37;;;;;;;0.50;0.50;;;9.40;99.90;;;;;;4995197;28;20042;-82
2023/03/14 08:08:04;;;;;;;3.28;1.00;;;9.10;99.90;;;;;;5011655;28;20036;-82
2023/03/14 08:10:32;;;;;;;1.77;0.30;;;9.00;99.90;;;;;;4984627;28;20033;-82
2023/03/14 08:12:59;;;;;;;1.15;0.40;;;8.90;99.90;;;;;;4990911;28;20425;-82
2023/03/14 08:15:25;;;;;;;0.40;0.40;;;8.70;99.90;;;;;;5010112;28;20117;-82
2023/03/14 08:17:53;;;;;;;0.52;0.52;;;8.80;99.90;;;;;;4992649;28;20108;-81
2023/03/14 08:20:21;;;;;;;0.90;0.55;;;8.80;99.90;;;;;;5001394;28;20038;-82
2023/03/14 08:22:47;;;;;;;0.60;0.60;;;8.80;99.90;;;;;;5000562;28;20101;-82
2023/03/14 08:25:13;;;;;;;1.30;1.10;;;8.80;99.90;;;;;;4991321;28;20075;-81
2023/03/14 08:27:40;;;;;;;1.38;0.77;;;8.70;99.90;;;;;;4976920;28;20040;-81
2023/03/14 08:30:11;;;;;;;0.55;0.55;;;8.80;99.90;;;;;;5003777;28;20052;-82
2023/03/14 08:32:38;;;;;;;1.65;0.65;;;8.80;99.90;;;;;;4988165;28;20084;-80
2023/03/14 08:35:05;;;;;;;0.88;0.88;;;8.80;99.90;;;;;;5000098;28;20052;-80
2023/03/14 08:37:32;;;;;;;1.10;0.95;;;8.80;99.90;;;;;;4993572;28;20037;-80
2023/03/14 08:39:58;;;;;;;2.10;0.82;;;9.00;99.90;;;;;;5001181;28;20026;-80
2023/03/14 08:42:24;;;;;;;1.38;1.25;;;8.70;99.90;;;;;;5000063;28;20539;-80
2023/03/14 08:44:51;;;;;;;3.67;0.60;;;8.90;99.90;;;;;;4993802;28;20093;-80
2023/03/14 08:47:17;;;;;;;16.33;0.98;;;8.70;99.90;;;;;;5008480;28;20030;-80
2023/03/14 08:49:43;;;;;;;1.08;0.73;;;8.70;99.90;;;;;;5002111;28;20037;-80
2023/03/14 08:52:09;;;;;;;1.58;0.75;;;8.90;99.90;;;;;;5009491;28;20121;-80
2023/03/14 08:54:35;;;;;;;0.82;0.80;;;9.00;99.90;;;;;;4992824;28;20041;-81
2023/03/14 08:57:01;;;;;;;0.60;0.57;;;9.00;99.90;;;;;;5008677;28;20105;-81
2023/03/14 08:59:27;;;;;;;3.05;0.55;;;9.20;99.90;;;;;;4988378;28;20489;-81
2023/03/14 09:01:54;;;;;;;3.25;1.02;;;9.20;99.90;;;;;;5007965;28;20026;-80
2023/03/14 09:04:20;;;;;;;1.50;1.40;;;9.10;99.90;;;;;;4999081;28;20038;-81
2023/03/14 09:06:46;;;;;;;1.60;1.25;;;8.90;99.90;;;;;;4992081;28;20034;-80
2023/03/14 09:09:13;;;;;;;1.55;0.75;;;8.60;99.90;;;;;;4992714;28;20100;-80
2023/03/14 09:11:39;;;;;;;2.50;2.30;;;8.70;99.90;;;;;;4992691;28;20038;-81
2023/03/14 09:14:05;;;;;;;2.30;0.95;;;8.70;99.90;;;;;;4997205;28;20038;-81
2023/03/14 09:16:32;;;;;;;1.83;1.73;;;8.70;99.90;;;;;;4987152;28;20048;-83
2023/03/14 09:18:59;;;;;;;2.40;1.70;;;8.80;99.90;;;;;;5012268;28;20362;-82
2023/03/14 09:21:27;;;;;;;4.88;1.30;;;9.00;99.90;;;;;;5003121;28;20046;-81
2023/03/14 09:23:53;;;;;;;2.33;1.88;;;9.20;99.90;;;;;;4993744;28;20030;-81
2023/03/14 09:26:18;;;;;;;3.63;1.17;;;9.30;99.90;;;;;;4999081;28;20120;-81
2023/03/14 09:28:45;;;;;;;1.90;1.33;;;9.40;99.90;;;;;;5004147;28;20060;-81
2023/03/14 09:31:12;;;;;;;2.10;1.15;;;9.50;99.90;;;;;;4982856;28;20039;-80
2023/03/14 09:33:38;;;;;;;2.97;1.05;;;9.60;99.90;;;;;;4993219;28;20042;-81
2023/03/14 09:36:05;;;;;;;1.35;1.25;;;9.60;99.90;;;;;;4988950;28;20173;-80
2023/03/14 09:38:32;;;;;;;6.68;1.98;;;9.70;99.90;;;;;;4997172;28;20033;-81
2023/03/14 09:41:01;;;;;;;3.67;1.23;;;10.30;99.90;;;;;;5007209;28;20034;-81
2023/03/14 09:43:31;;;;;;;1.42;1.33;;;11.10;99.90;;;;;;4985974;28;20584;-82
2023/03/14 09:46:00;;;;;;;3.50;0.90;;;11.20;99.90;;;;;;5002053;28;20499;-81
2023/03/14 09:48:32;;;;;;;2.50;0.98;;;11.10;99.90;;;;;;4992331;28;20033;-83
2023/03/14 09:51:03;;;;;;;4.30;1.15;;;11.10;99.90;;;;;;5003112;28;20053;-82
2023/03/14 09:53:42;;;;;;;4.03;3.72;;;10.80;99.90;;;;;;5005382;28;20042;-82
2023/03/14 09:56:31;;;;;;;5.57;2.38;;;10.80;99.90;;;;;;5004533;28;20037;-82
2023/03/14 09:59:05;;;;;;;2.00;1.67;;;10.60;99.90;;;;;;4979057;28;20053;-81
2023/03/14 10:01:33;;;;;;;2.35;1.05;;;10.70;99.90;;;;;;5010018;28;20532;-81
2023/03/14 10:04:09;;;;;;;2.45;1.63;;;10.70;99.90;;;;;;4991774;28;20026;-82
2023/03/14 10:06:37;;;;;;;5.72;2.05;;;10.30;99.90;;;;;;4980291;28;20054;-81
2023/03/14 10:09:05;;;;;;;1.35;1.25;;;10.20;99.90;;;;;;4994586;28;20037;-82
2023/03/14 10:11:31;;;;;;;4.15;1.20;;;9.80;99.90;;;;;;5007232;28;20030;-82
2023/03/14 10:14:04;;;;;;;7.22;2.13;;;9.40;99.90;;;;;;4997885;28;20097;-82
2023/03/14 10:16:33;;;;;;;1.48;1.38;;;9.00;99.90;;;;;;4993835;28;20030;-82
2023/03/14 10:19:09;;;;;;;1.35;1.27;;;8.90;99.90;;;;;;4990185;28;20026;-82
2023/03/14 10:21:38;;;;;;;1.13;1.02;;;8.70;99.90;;;;;;4985837;28;20058;-82
2023/03/14 10:24:19;;;;;;;1.40;1.30;;;8.50;99.90;;;;;;5004260;28;20056;-82
2023/03/14 10:26:50;;;;;;;1.27;1.17;;;8.50;99.90;;;;;;5008854;28;20033;-82
2023/03/14 10:29:16;;;;;;;;;;;8.20;99.90;;;;;;5013413;28;20034;-83
2023/03/14 10:31:55;;;;;;;0.52;0.52;;;7.70;99.90;;;;;;5005957;28;19988;-83
2023/03/14 10:34:36;;;;;;;1.15;0.82;;;7.70;99.90;;;;;;4995710;28;20495;-84
2023/03/14 10:37:16;;;;;;;3.05;0.80;;;7.60;99.90;;;;;;5012406;28;20045;-83
2023/03/14 10:39:48;;;;;;;1.45;0.85;;;7.30;99.90;;;;;;4994704;28;20045;-83
2023/03/14 10:42:31;;;;;;;3.15;1.75;;;7.40;99.90;;;;;;4994479;28;20351;-83
2023/03/14 10:45:38;;;;;;;1.85;1.55;;;7.50;99.90;;;;;;5028147;28;20037;-82
2023/03/14 10:48:13;;;;;;;0.95;0.60;;;7.50;99.90;;;;;;5009220;28;20053;-82
2023/03/14 10:51:08;;;;;;;0.40;0.40;;;7.60;99.90;;;;;;4994924;28;20061;-83
2023/03/14 10:53:44;;;;;;;1.65;1.08;;;7.60;99.90;;;;;;5000848;28;20061;-82
2023/03/14 10:56:20;;;;;;;11.95;1.20;;;7.90;99.90;;;;;;4986938;28;20040;-84
2023/03/14 10:58:48;;;;;;;2.45;2.20;;;8.90;99.90;;;;;;5011008;28;20038;-83
2023/03/14 11:01:39;;;;;;;4.55;1.50;;;8.80;99.90;;;;;;5010493;28;20029;-85
2023/03/14 11:04:23;;;;;;;0.85;0.57;;;9.80;99.90;;;;;;5010178;28;20611;-84
2023/03/14 11:06:58;;;;;;;3.85;0.93;;;10.50;99.90;;;;;;5007147;28;20476;-83
2023/03/14 11:09:48;;;;;;;1.35;0.80;;;11.20;99.90;;;;;;5004226;28;20416;-83
2023/03/14 11:12:49;;;;;;;1.92;0.80;;;12.20;99.90;;;;;;4997392;28;20113;-84
2023/03/14 11:15:33;;;;;;;1.20;0.63;;;13.10;99.90;;;;;;4975434;28;20061;-83
2023/03/14 11:18:18;;;;;;;0.95;0.88;;;13.30;99.90;;;;;;4976159;28;20432;-83
2023/03/14 11:20:58;;;;;;;0.93;0.35;;;12.80;99.90;;;;;;4984729;28;20031;-83
2023/03/14 11:23:40;;;;;;;3.63;0.90;;;12.50;99.90;;;;;;4976197;28;20077;-83
2023/03/14 11:26:21;;;;;;;0.95;0.75;;;12.30;99.90;;;;;;4992679;28;20485;-84
2023/03/14 11:28:57;;;;;;;1.75;1.33;;;12.20;99.90;;;;;;4976593;28;20034;-83
2023/03/14 11:31:33;;;;;;;8.55;3.33;;;12.40;99.90;;;;;;5003817;28;20076;-84
2023/03/14 11:34:11;;;;;;;2.72;1.42;;;12.20;99.90;;;;;;4994065;28;20535;-85
2023/03/14 11:37:00;;;;;;;1.85;1.42;;;11.60;99.90;;;;;;5007612;28;20133;-84
2023/03/14 11:39:35;;;;;;;7.78;1.67;;;10.40;99.90;;;;;;5011277;28;20496;-84
2023/03/14 11:42:03;;;;;;;2.72;2.38;;;9.90;99.90;;;;;;5008211;28;20033;-83
2023/03/14 11:44:38;;;;;;;15.43;2.35;;;9.80;99.90;;;;;;5011465;28;20541;-84
2023/03/14 11:47:15;;;;;;;2.78;0.88;;;9.70;99.90;;;;;;5011024;28;20122;-83
2023/03/14 11:50:06;;;;;;;6.20;1.73;;;9.70;99.90;;;;;;5011588;28;20037;-84
2023/03/14 11:52:47;;;;;;;5.25;2.25;;;9.70;99.90;;;;;;4989385;28;20370;-85
2023/03/14 11:55:22;;;;;;;1.70;0.88;;;9.90;99.90;;;;;;4989415;28;20046;-82
2023/03/14 11:57:50;;;;;;;4.35;0.90;;;10.50;99.90;;;;;;4994610;28;20480;-83
2023/03/14 12:00:21;;;;;;;3.42;1.50;;;10.30;99.90;;;;;;4997546;28;20034;-82
2023/03/14 12:03:00;;;;;;;4.15;1.88;;;10.60;99.90;;;;;;5005469;28;20382;-83
2023/03/14 12:05:31;;;;;;;4.13;1.30;;;10.50;99.90;;;;;;5001986;28;20070;-83
2023/03/14 12:08:09;;;;;;;5.50;1.25;;;10.50;99.90;;;;;;5000055;28;20075;-83
2023/03/14 12:11:02;;;;;;;6.35;2.72;;;10.60;99.90;;;;;;4997481;28;20029;-84
2023/03/14 12:13:33;;;;;;;1.23;1.23;;;11.20;99.90;;;;;;4967579;28;20054;-82
2023/03/14 12:16:03;;;;;;;2.67;2.15;;;11.10;99.90;;;;;;5001585;28;20033;-83
2023/03/14 12:18:33;;;;;;;3.72;2.00;;;10.50;99.90;;;;;;5012523;28;20033;-82
2023/03/14 12:21:03;;;;;;;3.63;1.25;;;9.10;99.90;;;;;;4990979;28;20054;-82
2023/03/14 12:23:35;;;;;;;7.30;2.40;;;9.20;99.90;;;;;;4987019;28;20034;-83
2023/03/14 12:26:08;;;;;;;4.50;1.67;;;8.50;99.90;;;;;;4985170;28;20053;-82
2023/03/14 12:28:34;;;;;;;3.83;3.13;;;8.00;99.90;;;;;;4990930;28;20104;-83
2023/03/14 12:31:29;;;;;;;11.57;2.33;;;7.60;99.90;;;;;;4983662;28;20025;-82
2023/03/14 12:34:21;;;;;;;5.63;2.08;;;7.40;99.90;;;;;;4993650;28;20053;-82
2023/03/14 12:36:50;;;;;;;4.45;2.28;;;7.60;99.90;;;;;;5007093;28;20038;-83
2023/03/14 12:39:24;;;;;;;8.48;3.75;;;8.00;99.90;;;;;;4987669;28;20019;-83
2023/03/14 12:42:11;;;;;;;5.13;2.45;;;8.70;99.90;;;;;;4989271;28;20029;-84
2023/03/14 12:44:51;;;;;;;8.40;3.08;;;8.80;99.90;;;;;;4993628;28;20027;-82
2023/03/14 12:47:19;;;;;;;10.50;3.15;;;9.50;99.90;;;;;;4994237;28;20069;-83
2023/03/14 12:49:48;;;;;;;11.35;3.38;;;9.70;99.90;;;;;;5000797;28;20069;-83
2023/03/14 12:52:18;;;;;;;10.15;2.70;;;10.00;99.90;;;;;;4990887;28;20030;-83
2023/03/14 12:54:47;;;;;;;19.60;3.30;;;10.30;99.90;;;;;;5008766;28;20035;-84
2023/03/14 12:57:28;;;;;;;8.90;2.10;;;10.50;99.90;;;;;;4994014;28;20030;-83
2023/03/14 13:00:07;;;;;;;4.88;2.08;;;10.70;99.90;;;;;;4990785;28;20038;-83
2023/03/14 13:02:43;;;;;;;2.53;1.58;;;10.60;99.90;;;;;;4993940;28;20080;-83
2023/03/14 13:05:19;;;;;;;6.95;2.35;;;10.90;99.90;;;;;;4980112;28;20169;-84
2023/03/14 13:07:47;;;;;;;7.18;3.20;;;10.80;99.90;;;;;;4988902;28;20141;-83
2023/03/14 13:10:21;;;;;;;10.63;2.53;;;11.10;99.90;;;;;;4986206;28;20033;-84
2023/03/14 13:13:03;;;;;;;6.72;3.50;;;11.60;99.90;;;;;;4994574;28;20034;-83
2023/03/14 13:15:38;;;;;;;21.90;6.10;;;11.90;99.90;;;;;;4997140;28;20124;-85
2023/03/14 13:18:17;;;;;;;7.40;2.25;;;12.00;99.90;;;;;;5008713;28;20060;-83